createdAt,value
2023-03-15T00:00:31.164Z,99747.69
2023-03-15T00:02:58.856Z,99739.34
2023-03-15T00:05:27.825Z,99751.03
2023-03-15T00:07:55.562Z,99762.09
2023-03-15T00:10:23.139Z,99762.88
2023-03-15T00:12:50.715Z,99772.56
2023-03-15T00:15:18.701Z,99768.97
2023-03-15T00:17:46.342Z,99770.66
2023-03-15T00:20:15.675Z,99771.34
2023-03-15T00:22:44.655Z,99773.13
2023-03-15T00:25:12.330Z,99780.75
2023-03-15T00:27:40.198Z,99776.31
2023-03-15T00:30:08.815Z,99779.34
2023-03-15T00:32:36.383Z,99789.44
2023-03-15T00:35:04.435Z,99787.75
2023-03-15T00:37:32.232Z,99800.34
2023-03-15T00:40:02.394Z,99799.06
2023-03-15T00:42:29.967Z,99803.69
2023-03-15T00:44:57.518Z,99811.97
2023-03-15T00:47:25.038Z,99813.66
2023-03-15T00:49:53.123Z,99810.31
2023-03-15T00:52:22.070Z,99810.22
2023-03-15T00:54:53.016Z,99819.50
2023-03-15T00:57:22.728Z,99824.28
2023-03-15T00:59:53.111Z,99829.13
2023-03-15T01:02:22.115Z,99828.00
2023-03-15T01:04:49.814Z,99823.59
2023-03-15T01:07:17.460Z,99831.03
2023-03-15T01:09:46.867Z,99824.78
2023-03-15T01:12:16.016Z,99831.16
2023-03-15T01:14:44.908Z,99835.00
2023-03-15T01:17:12.651Z,99834.38
2023-03-15T01:19:40.341Z,99836.91
2023-03-15T01:22:07.974Z,99836.91
2023-03-15T01:24:36.423Z,99835.38
2023-03-15T01:27:04.347Z,99835.31
2023-03-15T01:29:32.174Z,99838.66
2023-03-15T01:32:01.892Z,99834.38
2023-03-15T01:34:29.458Z,99835.94
2023-03-15T01:36:57.050Z,99834.13
2023-03-15T01:39:30.700Z,99838.34
2023-03-15T01:41:58.352Z,99840.78
2023-03-15T01:44:48.894Z,99840.94
2023-03-15T01:47:18.894Z,99840.69
2023-03-15T01:49:50.754Z,99839.75
2023-03-15T01:52:22.845Z,99843.06
2023-03-15T01:55:01.494Z,99853.34
2023-03-15T01:57:33.142Z,99843.06
2023-03-15T02:00:11.757Z,99844.66
2023-03-15T02:03:03.640Z,99853.94
2023-03-15T02:05:36.306Z,99851.16
2023-03-15T02:08:08.106Z,99864.84
2023-03-15T02:10:42.375Z,99863.25
2023-03-15T02:13:13.534Z,99866.41
2023-03-15T02:15:46.592Z,99857.66
2023-03-15T02:18:21.929Z,99869.41
2023-03-15T02:20:56.555Z,99869.06
2023-03-15T02:23:25.183Z,99884.81
2023-03-15T02:26:01.363Z,99884.66
2023-03-15T02:28:31.561Z,99882.66
2023-03-15T02:30:59.684Z,99890.28
2023-03-15T02:33:33.438Z,99891.84
2023-03-15T02:36:09.288Z,99893.44
2023-03-15T02:38:37.866Z,99898.59
2023-03-15T02:41:06.828Z,99912.88
2023-03-15T02:43:37.462Z,99917.25
2023-03-15T02:46:06.420Z,99917.09
2023-03-15T02:48:36.449Z,99927.34
2023-03-15T02:51:04.192Z,99933.47
2023-03-15T02:53:32.250Z,99936.00
2023-03-15T02:56:00.550Z,99932.50
2023-03-15T02:58:28.765Z,99938.28
2023-03-15T03:00:59.250Z,99949.50
2023-03-15T03:03:26.942Z,99947.56
2023-03-15T03:05:54.510Z,99948.25
2023-03-15T03:08:22.739Z,99954.06
2023-03-15T03:10:50.991Z,99958.16
2023-03-15T03:13:18.552Z,99962.28
2023-03-15T03:15:46.288Z,99969.09
2023-03-15T03:18:16.463Z,99980.41
2023-03-15T03:20:46.062Z,99977.84
2023-03-15T03:23:13.818Z,99971.75
2023-03-15T03:25:45.606Z,99976.63
2023-03-15T03:28:13.162Z,99977.50
2023-03-15T03:30:40.814Z,99980.50
2023-03-15T03:33:08.452Z,99980.13
2023-03-15T03:35:37.416Z,99984.31
2023-03-15T03:38:05.116Z,99987.75
2023-03-15T03:40:38.318Z,99990.09
2023-03-15T03:43:08.852Z,99992.19
2023-03-15T03:45:36.882Z,99985.19
2023-03-15T03:48:05.140Z,99996.22
2023-03-15T03:50:35.113Z,100002.25
2023-03-15T03:53:04.275Z,100008.38
2023-03-15T03:55:35.032Z,100001.81
2023-03-15T03:58:02.610Z,100006.75
2023-03-15T04:00:48.246Z,100010.69
2023-03-15T04:03:16.292Z,100015.59
2023-03-15T04:05:48.240Z,100016.47
2023-03-15T04:08:21.447Z,100019.09
2023-03-15T04:10:53.180Z,100019.09
2023-03-15T04:13:22.212Z,100022.00
2023-03-15T04:15:52.335Z,100027.69
2023-03-15T04:18:20.039Z,100026.97
2023-03-15T04:20:48.776Z,100031.00
2023-03-15T04:23:21.282Z,100029.72
2023-03-15T04:25:58.573Z,100036.47
2023-03-15T04:28:44.660Z,100036.06
2023-03-15T04:31:37.540Z,100036.78
2023-03-15T04:34:18.872Z,100036.69
2023-03-15T04:37:02.204Z,100033.78
2023-03-15T04:39:54.289Z,100032.00
2023-03-15T04:42:32.016Z,100023.63
2023-03-15T04:44:59.530Z,100031.03
2023-03-15T04:47:51.622Z,100032.00
2023-03-15T04:50:34.244Z,100036.31
2023-03-15T04:53:22.819Z,100032.78
2023-03-15T04:56:06.942Z,100037.78
2023-03-15T04:58:47.134Z,100028.13
2023-03-15T05:01:33.393Z,100034.97
2023-03-15T05:04:19.077Z,100041.00
2023-03-15T05:07:05.357Z,100041.78
2023-03-15T05:09:53.869Z,100040.41
2023-03-15T05:12:39.779Z,100041.19
2023-03-15T05:15:22.337Z,100042.78
2023-03-15T05:18:04.014Z,100051.94
2023-03-15T05:20:50.297Z,100045.13
2023-03-15T05:23:34.267Z,100036.53
2023-03-15T05:26:20.323Z,100042.38
2023-03-15T05:29:12.975Z,100040.47
2023-03-15T05:31:58.031Z,100052.94
2023-03-15T05:35:01.532Z,100046.91
2023-03-15T05:37:42.243Z,100053.44
2023-03-15T05:40:36.033Z,100055.69
2023-03-15T05:43:35.845Z,100058.13
2023-03-15T05:46:23.476Z,100064.66
2023-03-15T05:49:15.951Z,100065.25
2023-03-15T05:52:04.301Z,100063.50
2023-03-15T05:54:50.719Z,100063.31
2023-03-15T05:57:37.102Z,100059.13
2023-03-15T06:00:23.394Z,100065.06
2023-03-15T06:02:59.203Z,100060.00
2023-03-15T06:05:36.882Z,100059.78
2023-03-15T06:08:07.599Z,100067.50
2023-03-15T06:10:39.140Z,100065.06
2023-03-15T06:13:09.293Z,100070.16
2023-03-15T06:15:36.963Z,100073.16
2023-03-15T06:18:07.218Z,100078.81
2023-03-15T06:20:35.593Z,100078.84
2023-03-15T06:23:09.378Z,100075.44
2023-03-15T06:25:43.494Z,100095.44
2023-03-15T06:28:11.249Z,100094.63
2023-03-15T06:30:43.203Z,100090.69
2023-03-15T06:33:12.725Z,100094.28
2023-03-15T06:35:40.912Z,100097.28
2023-03-15T06:38:09.914Z,100094.88
2023-03-15T06:40:39.026Z,100095.75
2023-03-15T06:43:06.802Z,100099.97
2023-03-15T06:45:35.820Z,100094.75
2023-03-15T06:48:05.433Z,100105.47
2023-03-15T06:50:45.987Z,100115.09
2023-03-15T06:53:14.805Z,100112.47
2023-03-15T06:55:42.797Z,100113.34
2023-03-15T06:58:10.392Z,100121.91
2023-03-15T07:00:38.278Z,100119.56
2023-03-15T07:03:06.182Z,100118.25
2023-03-15T07:05:35.039Z,100114.41
2023-03-15T07:08:04.282Z,100120.91
2023-03-15T07:10:31.869Z,100117.41
2023-03-15T07:12:59.600Z,100119.84
2023-03-15T07:15:28.317Z,100121.25
2023-03-15T07:17:55.869Z,100120.25
2023-03-15T07:20:23.423Z,100122.97
2023-03-15T07:22:52.500Z,100126.09
2023-03-15T07:25:23.861Z,100125.66
2023-03-15T07:27:51.695Z,100128.91
2023-03-15T07:30:19.604Z,100126.38
2023-03-15T07:32:47.502Z,100136.31
2023-03-15T07:35:16.798Z,100132.41
2023-03-15T07:37:44.941Z,100137.81
2023-03-15T07:40:15.919Z,100144.50
2023-03-15T07:42:43.869Z,100136.63
2023-03-15T07:45:13.936Z,100146.03
2023-03-15T07:47:41.615Z,100142.47
2023-03-15T07:50:12.665Z,100143.25
2023-03-15T07:52:41.064Z,100148.50
2023-03-15T07:55:10.149Z,100152.97
2023-03-15T07:57:39.117Z,100148.50
2023-03-15T08:00:09.041Z,100145.31
2023-03-15T08:02:39.810Z,100151.22
2023-03-15T08:05:08.122Z,100145.31
2023-03-15T08:07:36.507Z,100154.06
2023-03-15T08:10:05.401Z,100159.50
2023-03-15T08:12:35.004Z,100168.69
2023-03-15T08:15:04.366Z,100160.78
2023-03-15T08:17:31.908Z,100154.97
2023-03-15T08:19:59.511Z,100153.59
2023-03-15T08:22:27.061Z,100150.81
2023-03-15T08:24:54.647Z,100152.94
2023-03-15T08:27:22.185Z,100160.88
2023-03-15T08:29:50.822Z,100163.88
2023-03-15T08:32:21.463Z,100161.66
2023-03-15T08:34:49.430Z,100163.41
2023-03-15T08:37:16.982Z,100162.38
2023-03-15T08:39:44.555Z,100159.16
2023-03-15T08:42:13.917Z,100161.78
2023-03-15T08:44:41.646Z,100162.28
2023-03-15T08:47:09.639Z,100161.50
2023-03-15T08:49:38.557Z,100173.03
2023-03-15T08:52:06.556Z,100170.31
2023-03-15T08:54:34.130Z,100169.25
2023-03-15T08:57:01.661Z,100170.44
2023-03-15T08:59:32.079Z,100178.31
2023-03-15T09:02:00.866Z,100177.88
2023-03-15T09:04:28.565Z,100173.03
2023-03-15T09:07:00.617Z,100173.13
2023-03-15T09:09:28.523Z,100172.94
2023-03-15T09:11:56.588Z,100171.91
2023-03-15T09:14:24.226Z,100182.22
2023-03-15T09:16:52.155Z,100170.75
2023-03-15T09:19:19.980Z,100184.09
2023-03-15T09:21:47.652Z,100190.31
2023-03-15T09:24:16.748Z,100186.63
2023-03-15T09:26:44.324Z,100192.59
2023-03-15T09:29:14.205Z,100201.25
2023-03-15T09:31:41.723Z,100189.13
2023-03-15T09:34:09.665Z,100191.56
2023-03-15T09:36:37.944Z,100197.13
2023-03-15T09:39:06.083Z,100187.81
2023-03-15T09:41:45.240Z,100189.50
2023-03-15T09:44:24.876Z,100196.19
2023-03-15T09:47:06.333Z,100198.25
2023-03-15T09:49:43.332Z,100193.66
2023-03-15T09:52:22.998Z,100207.34
2023-03-15T09:54:55.513Z,100199.66
2023-03-15T09:57:35.504Z,100195.13
2023-03-15T10:00:06.875Z,100197.53
2023-03-15T10:02:37.301Z,100203.19
2023-03-15T10:05:09.875Z,100215.63
2023-03-15T10:07:37.919Z,100193.03
2023-03-15T10:10:09.916Z,100206.56
2023-03-15T10:12:43.913Z,100205.75
2023-03-15T10:15:29.770Z,100194.19
2023-03-15T10:18:14.916Z,100197.38
2023-03-15T10:20:50.540Z,100204.44
2023-03-15T10:23:24.590Z,100213.63
2023-03-15T10:25:52.882Z,100208.69
2023-03-15T10:28:25.841Z,100233.66
2023-03-15T10:30:53.870Z,100206.03
2023-03-15T10:33:27.582Z,100202.28
2023-03-15T10:36:01.275Z,100208.34
2023-03-15T10:38:37.960Z,100221.69
2023-03-15T10:41:07.827Z,100224.94
2023-03-15T10:43:39.705Z,100231.09
2023-03-15T10:46:09.165Z,100235.50
2023-03-15T10:48:38.614Z,100219.28
2023-03-15T10:51:08.449Z,100212.81
2023-03-15T10:53:37.469Z,100237.13
2023-03-15T10:56:08.421Z,100228.59
2023-03-15T10:59:05.354Z,100219.41
2023-03-15T11:01:36.321Z,100207.88
2023-03-15T11:04:15.244Z,100210.44
2023-03-15T11:06:45.873Z,100211.94
2023-03-15T11:09:16.044Z,100212.38
2023-03-15T11:11:54.189Z,100224.84
2023-03-15T11:14:23.148Z,100217.16
2023-03-15T11:16:54.813Z,100230.69
2023-03-15T11:19:26.648Z,100222.03
2023-03-15T11:21:54.689Z,100225.91
2023-03-15T11:24:26.741Z,100231.78
2023-03-15T11:26:55.995Z,100235.13
2023-03-15T11:29:28.226Z,100234.19
2023-03-15T11:31:57.036Z,100234.31
2023-03-15T11:34:38.857Z,100233.78
2023-03-15T11:37:13.338Z,100233.38
2023-03-15T11:39:46.248Z,100232.25
2023-03-15T11:42:23.781Z,100232.97
2023-03-15T11:44:56.687Z,100227.31
2023-03-15T11:47:33.865Z,100231.97
2023-03-15T11:50:01.666Z,100231.72
2023-03-15T11:52:30.500Z,100232.00
2023-03-15T11:54:59.983Z,100239.16
2023-03-15T11:57:40.369Z,100234.03
2023-03-15T12:00:49.029Z,100253.53
2023-03-15T12:03:41.907Z,100260.75
2023-03-15T12:06:36.692Z,100264.53
2023-03-15T12:09:25.581Z,100261.53
2023-03-15T12:11:58.416Z,100251.72
2023-03-15T12:14:29.874Z,100258.19
2023-03-15T12:17:36.350Z,100258.28
2023-03-15T12:20:11.156Z,100246.00
2023-03-15T12:22:42.775Z,100252.91
2023-03-15T12:25:15.569Z,100252.25
2023-03-15T12:27:49.604Z,100259.56
2023-03-15T12:30:23.714Z,100255.81
2023-03-15T12:32:54.846Z,100251.78
2023-03-15T12:35:24.792Z,100250.03
2023-03-15T12:37:54.115Z,100250.41
2023-03-15T12:40:48.506Z,100247.94
2023-03-15T12:43:36.782Z,100251.41
2023-03-15T12:46:04.930Z,100247.28
2023-03-15T12:48:33.034Z,100240.97
2023-03-15T12:51:33.806Z,100240.41
2023-03-15T12:54:03.910Z,100246.06
2023-03-15T12:56:36.872Z,100242.09
2023-03-15T12:59:13.846Z,100232.88
2023-03-15T13:01:43.224Z,100233.91
2023-03-15T13:04:12.293Z,100223.78
2023-03-15T13:06:53.388Z,100234.16
2023-03-15T13:09:39.611Z,100236.88
2023-03-15T13:12:15.212Z,100225.16
2023-03-15T13:14:48.065Z,100225.44
2023-03-15T13:17:29.491Z,100228.09
2023-03-15T13:20:12.553Z,100224.22
2023-03-15T13:22:55.557Z,100216.91
2023-03-15T13:25:31.065Z,100214.78
2023-03-15T13:28:01.684Z,100217.41
2023-03-15T13:30:35.246Z,100207.53
2023-03-15T13:33:10.681Z,100215.75
2023-03-15T13:35:44.096Z,100201.38
2023-03-15T13:38:23.684Z,100210.53
2023-03-15T13:40:51.274Z,100210.53
2023-03-15T13:43:18.922Z,100208.06
2023-03-15T13:45:47.893Z,100212.19
2023-03-15T13:48:15.701Z,100220.44
2023-03-15T13:50:43.353Z,100225.69
2023-03-15T13:53:19.143Z,100219.22
2023-03-15T13:55:52.202Z,100213.03
2023-03-15T13:58:21.300Z,100216.75
2023-03-15T14:00:58.033Z,100214.53
2023-03-15T14:03:26.370Z,100208.22
2023-03-15T14:05:56.109Z,100206.72
2023-03-15T14:08:27.261Z,100199.88
2023-03-15T14:11:04.028Z,100191.78
2023-03-15T14:13:33.694Z,100203.22
2023-03-15T14:16:05.027Z,100213.31
2023-03-15T14:18:35.642Z,100214.06
2023-03-15T14:21:07.559Z,100214.84
2023-03-15T14:23:39.666Z,100224.91
2023-03-15T14:26:13.652Z,100228.94
2023-03-15T14:28:42.528Z,100227.47
2023-03-15T14:31:24.001Z,100225.84
2023-03-15T14:33:56.779Z,100232.53
2023-03-15T14:36:30.327Z,100232.16
2023-03-15T14:38:59.565Z,100230.00
2023-03-15T14:41:33.069Z,100236.22
2023-03-15T14:44:03.868Z,100225.44
2023-03-15T14:46:32.777Z,100242.47
2023-03-15T14:49:00.856Z,100241.78
2023-03-15T14:51:30.385Z,100232.00
2023-03-15T14:54:00.159Z,100243.41
2023-03-15T14:56:27.712Z,100244.44
2023-03-15T14:58:55.345Z,100249.53
2023-03-15T15:01:26.269Z,100239.78
2023-03-15T15:03:59.710Z,100257.50
2023-03-15T15:06:28.025Z,100250.94
2023-03-15T15:08:58.757Z,100249.00
2023-03-15T15:11:26.622Z,100258.41
2023-03-15T15:13:54.842Z,100256.97
2023-03-15T15:16:22.683Z,100257.66
2023-03-15T15:18:50.516Z,100252.44
2023-03-15T15:21:24.572Z,100243.56
2023-03-15T15:23:58.991Z,100241.38
2023-03-15T15:26:30.304Z,100244.63
2023-03-15T15:28:58.576Z,100253.38
2023-03-15T15:31:28.122Z,100244.91
2023-03-15T15:33:57.380Z,100253.31
2023-03-15T15:36:30.482Z,100248.69
2023-03-15T15:39:01.183Z,100247.91
2023-03-15T15:41:31.404Z,100245.06
2023-03-15T15:43:59.218Z,100255.69
2023-03-15T15:46:26.982Z,100255.25
2023-03-15T15:48:55.893Z,100259.66
2023-03-15T15:51:29.900Z,100258.69
2023-03-15T15:53:59.266Z,100255.22
2023-03-15T15:56:32.780Z,100266.16
2023-03-15T15:59:00.849Z,100268.66
2023-03-15T16:01:28.447Z,100273.88
2023-03-15T16:03:56.022Z,100278.28
2023-03-15T16:06:23.902Z,100278.97
2023-03-15T16:08:54.057Z,100281.41
2023-03-15T16:11:22.136Z,100275.78
2023-03-15T16:13:53.704Z,100278.16
2023-03-15T16:16:21.938Z,100282.69
2023-03-15T16:18:49.789Z,100280.09
2023-03-15T16:21:29.122Z,100290.09
2023-03-15T16:24:04.511Z,100288.84
2023-03-15T16:26:32.577Z,100294.91
2023-03-15T16:29:00.121Z,100294.28
2023-03-15T16:31:27.756Z,100294.19
2023-03-15T16:33:55.369Z,100288.16
2023-03-15T16:36:23.341Z,100293.47
2023-03-15T16:38:51.109Z,100293.41
2023-03-15T16:41:20.091Z,100294.59
2023-03-15T16:43:49.420Z,100292.94
2023-03-15T16:46:17.985Z,100287.25
2023-03-15T16:48:45.546Z,100296.88
2023-03-15T16:51:17.382Z,100295.09
2023-03-15T16:53:45.502Z,100300.28
2023-03-15T16:56:15.545Z,100307.97
2023-03-15T16:58:45.059Z,100307.06
2023-03-15T17:01:12.710Z,100312.53
2023-03-15T17:03:40.410Z,100318.03
2023-03-15T17:06:17.220Z,100312.41
2023-03-15T17:08:45.152Z,100316.22
2023-03-15T17:11:13.142Z,100323.06
2023-03-15T17:13:41.937Z,100311.53
2023-03-15T17:16:13.104Z,100311.94
2023-03-15T17:18:44.441Z,100313.91
2023-03-15T17:21:13.566Z,100314.16
2023-03-15T17:23:41.293Z,100322.94
2023-03-15T17:26:12.801Z,100315.06
2023-03-15T17:28:41.037Z,100316.75
2023-03-15T17:31:24.641Z,100325.56
2023-03-15T17:33:52.603Z,100324.53
2023-03-15T17:36:22.610Z,100322.78
2023-03-15T17:38:50.974Z,100329.31
2023-03-15T17:41:22.212Z,100323.75
2023-03-15T17:43:51.424Z,100332.72
2023-03-15T17:46:21.861Z,100329.00
2023-03-15T17:48:49.703Z,100333.66
2023-03-15T17:51:22.003Z,100342.72
2023-03-15T17:53:50.481Z,100350.47
2023-03-15T17:56:18.611Z,100345.00
2023-03-15T17:58:47.498Z,100353.56
2023-03-15T18:01:17.509Z,100353.66
2023-03-15T18:03:46.960Z,100362.69
2023-03-15T18:06:15.505Z,100365.00
2023-03-15T18:08:43.734Z,100360.44
2023-03-15T18:11:16.835Z,100359.97
2023-03-15T18:13:44.602Z,100366.31
2023-03-15T18:16:12.629Z,100373.59
2023-03-15T18:18:40.207Z,100373.28
2023-03-15T18:21:13.794Z,100380.50
2023-03-15T18:23:41.884Z,100379.78
2023-03-15T18:26:10.413Z,100377.50
2023-03-15T18:28:38.046Z,100384.66
2023-03-15T18:31:11.402Z,100379.84
2023-03-15T18:33:38.884Z,100382.84
2023-03-15T18:36:07.013Z,100384.16
2023-03-15T18:38:36.429Z,100379.97
2023-03-15T18:41:04.397Z,100388.22
2023-03-15T18:43:31.954Z,100380.31
2023-03-15T18:45:59.510Z,100396.13
2023-03-15T18:48:39.798Z,100400.00
2023-03-15T18:51:12.087Z,100403.84
2023-03-15T18:53:42.907Z,100402.09
2023-03-15T18:56:17.422Z,100400.16
2023-03-15T18:58:45.030Z,100403.31
2023-03-15T19:01:12.723Z,100398.06
2023-03-15T19:03:40.820Z,100408.25
2023-03-15T19:06:11.449Z,100407.03
2023-03-15T19:08:40.913Z,100410.25
2023-03-15T19:11:10.412Z,100407.63
2023-03-15T19:13:38.459Z,100401.38
2023-03-15T19:16:06.305Z,100406.81
2023-03-15T19:18:34.727Z,100400.69
2023-03-15T19:21:02.710Z,100407.25
2023-03-15T19:23:30.488Z,100406.09
2023-03-15T19:25:59.451Z,100410.31
2023-03-15T19:28:27.105Z,100414.31
2023-03-15T19:30:54.732Z,100414.75
2023-03-15T19:33:22.322Z,100415.34
2023-03-15T19:35:50.046Z,100421.41
2023-03-15T19:38:18.840Z,100420.25
2023-03-15T19:40:46.472Z,100426.03
2023-03-15T19:43:15.965Z,100430.06
2023-03-15T19:45:44.035Z,100431.44
2023-03-15T19:48:11.755Z,100426.84
2023-03-15T19:50:39.471Z,100429.31
2023-03-15T19:53:07.144Z,100425.78
2023-03-15T19:55:35.962Z,100427.38
2023-03-15T19:58:03.689Z,100426.78
2023-03-15T20:00:32.647Z,100433.25
2023-03-15T20:03:00.776Z,100437.38
2023-03-15T20:05:28.339Z,100432.88
2023-03-15T20:07:55.932Z,100439.34
2023-03-15T20:10:23.989Z,100437.38
2023-03-15T20:12:51.809Z,100437.88
2023-03-15T20:15:20.858Z,100430.97
2023-03-15T20:17:49.762Z,100438.19
2023-03-15T20:20:18.469Z,100439.75
2023-03-15T20:22:46.875Z,100436.25
2023-03-15T20:25:15.680Z,100436.03
2023-03-15T20:27:43.421Z,100442.88
2023-03-15T20:30:13.249Z,100441.72
2023-03-15T20:32:40.968Z,100450.72
2023-03-15T20:35:10.860Z,100449.81
2023-03-15T20:37:41.407Z,100444.28
2023-03-15T20:40:11.431Z,100435.84
2023-03-15T20:42:39.231Z,100447.19
2023-03-15T20:45:09.489Z,100450.31
2023-03-15T20:47:37.754Z,100445.69
2023-03-15T20:50:05.907Z,100442.88
2023-03-15T20:52:34.897Z,100456.25
2023-03-15T20:55:03.497Z,100447.16
2023-03-15T20:57:31.168Z,100450.09
2023-03-15T20:59:58.843Z,100459.94
2023-03-15T21:02:26.548Z,100462.09
2023-03-15T21:04:54.090Z,100460.91
2023-03-15T21:07:21.669Z,100462.34
2023-03-15T21:09:50.562Z,100465.44
2023-03-15T21:12:19.575Z,100459.97
2023-03-15T21:14:47.147Z,100459.75
2023-03-15T21:17:15.228Z,100460.22
2023-03-15T21:19:42.740Z,100459.16
2023-03-15T21:22:11.736Z,100455.63
2023-03-15T21:24:52.981Z,100450.34
2023-03-15T21:27:25.919Z,100450.81
2023-03-15T21:29:53.562Z,100453.94
2023-03-15T21:32:21.825Z,100462.97
2023-03-15T21:34:49.381Z,100465.59
2023-03-15T21:37:17.026Z,100464.53
2023-03-15T21:39:44.621Z,100460.91
2023-03-15T21:42:12.155Z,100459.25
2023-03-15T21:44:41.628Z,100459.06
2023-03-15T21:47:09.232Z,100454.72
2023-03-15T21:49:36.771Z,100452.97
2023-03-15T21:52:04.320Z,100457.06
2023-03-15T21:54:31.945Z,100452.56
2023-03-15T21:56:59.493Z,100459.19
2023-03-15T21:59:28.048Z,100460.72
2023-03-15T22:02:01.628Z,100454.47
2023-03-15T22:04:29.296Z,100456.81
2023-03-15T22:06:56.919Z,100461.75
2023-03-15T22:09:24.523Z,100459.78
2023-03-15T22:11:52.123Z,100457.13
2023-03-15T22:14:19.953Z,100460.44
2023-03-15T22:16:47.677Z,100454.28
2023-03-15T22:19:16.624Z,100462.66
2023-03-15T22:21:44.748Z,100461.38
2023-03-15T22:24:12.422Z,100467.84
2023-03-15T22:26:40.016Z,100466.88
2023-03-15T22:29:07.573Z,100472.41
2023-03-15T22:31:38.031Z,100465.34
2023-03-15T22:34:05.929Z,100466.91
2023-03-15T22:36:34.848Z,100462.16
2023-03-15T22:39:02.683Z,100455.13
2023-03-15T22:41:33.546Z,100450.81
2023-03-15T22:44:01.157Z,100459.19
2023-03-15T22:46:34.889Z,100457.22
2023-03-15T22:49:03.094Z,100460.41
2023-03-15T22:51:30.972Z,100457.00
2023-03-15T22:53:59.840Z,100451.06
2023-03-15T22:56:27.432Z,100457.00
2023-03-15T22:58:55.545Z,100455.25
2023-03-15T23:01:23.185Z,100448.19
2023-03-15T23:03:50.998Z,100449.53
2023-03-15T23:06:18.844Z,100449.53
2023-03-15T23:08:46.435Z,100435.84
2023-03-15T23:11:15.391Z,100442.56
2023-03-15T23:13:43.231Z,100438.28
2023-03-15T23:16:10.875Z,100438.28
2023-03-15T23:18:38.460Z,100437.63
2023-03-15T23:21:07.657Z,100439.38
2023-03-15T23:23:35.688Z,100441.16
2023-03-15T23:26:03.783Z,100431.00
2023-03-15T23:28:33.076Z,100429.47
2023-03-15T23:31:01.147Z,100437.84
2023-03-15T23:33:28.982Z,100432.75
2023-03-15T23:35:56.810Z,100434.09
2023-03-15T23:38:24.438Z,100441.59
2023-03-15T23:40:55.342Z,100431.56
2023-03-15T23:43:23.332Z,100440.72
2023-03-15T23:45:57.202Z,100426.06
2023-03-15T23:48:25.210Z,100431.47
2023-03-15T23:50:54.289Z,100418.03
2023-03-15T23:53:22.040Z,100418.03
2023-03-15T23:55:49.940Z,100422.66
2023-03-15T23:58:17.451Z,100425.06
